createdAt,value
2023-04-19T00:01:29.645Z,52.63
2023-04-19T00:03:56.990Z,52.66
2023-04-19T00:06:24.688Z,52.96
2023-04-19T00:08:52.041Z,53.48
2023-04-19T00:11:21.334Z,53.36
2023-04-19T00:13:49.308Z,53.45
2023-04-19T00:16:19.479Z,53.10
2023-04-19T00:18:46.763Z,53.84
2023-04-19T00:21:13.725Z,53.64
2023-04-19T00:23:42.983Z,53.81
2023-04-19T00:26:11.713Z,54.57
2023-04-19T00:28:43.131Z,54.90
2023-04-19T00:31:12.615Z,54.58
2023-04-19T00:33:39.570Z,55.34
2023-04-19T00:36:06.712Z,56.15
2023-04-19T00:38:35.810Z,56.05
2023-04-19T00:41:02.729Z,56.02
2023-04-19T00:43:29.532Z,57.29
2023-04-19T00:45:59.073Z,57.50
2023-04-19T00:48:26.158Z,57.40
2023-04-19T00:50:53.325Z,57.58
2023-04-19T00:53:20.239Z,57.08
2023-04-19T00:55:50.968Z,58.21
2023-04-19T00:58:18.136Z,58.06
2023-04-19T01:00:45.075Z,58.31
2023-04-19T01:03:13.675Z,58.45
2023-04-19T01:05:40.921Z,58.47
2023-04-19T01:08:08.358Z,58.97
2023-04-19T01:10:37.381Z,59.03
2023-04-19T01:13:04.428Z,59.61
2023-04-19T01:15:33.822Z,59.51
2023-04-19T01:18:03.800Z,60.60
2023-04-19T01:20:30.722Z,60.36
2023-04-19T01:22:57.714Z,61.15
2023-04-19T01:25:24.597Z,61.20
2023-04-19T01:27:51.465Z,60.13
2023-04-19T01:30:20.681Z,60.97
2023-04-19T01:32:47.664Z,60.94
2023-04-19T01:35:16.860Z,60.58
2023-04-19T01:37:46.134Z,61.07
2023-04-19T01:40:13.585Z,60.00
2023-04-19T01:42:40.401Z,59.88
2023-04-19T01:45:08.006Z,60.99
2023-04-19T01:47:34.863Z,60.82
2023-04-19T01:50:01.717Z,59.73
2023-04-19T01:52:31.538Z,59.70
2023-04-19T01:54:58.623Z,59.93
2023-04-19T01:57:28.018Z,60.08
2023-04-19T01:59:54.922Z,58.06
2023-04-19T02:02:22.097Z,59.09
2023-04-19T02:04:51.287Z,58.52
2023-04-19T02:07:18.114Z,58.83
2023-04-19T02:09:47.204Z,58.73
2023-04-19T02:12:14.067Z,57.59
2023-04-19T02:14:41.063Z,58.63
2023-04-19T02:17:10.225Z,58.98
2023-04-19T02:19:37.112Z,57.44
2023-04-19T02:22:03.906Z,57.88
2023-04-19T02:24:30.796Z,57.82
2023-04-19T02:26:57.788Z,57.03
2023-04-19T02:29:24.638Z,57.18
2023-04-19T02:31:51.611Z,57.19
2023-04-19T02:34:18.680Z,57.59
2023-04-19T02:36:45.620Z,58.77
2023-04-19T02:39:12.594Z,58.11
2023-04-19T02:41:41.845Z,58.78
2023-04-19T02:44:08.940Z,57.67
2023-04-19T02:46:35.896Z,57.65
2023-04-19T02:49:02.832Z,57.47
2023-04-19T02:51:29.860Z,58.39
2023-04-19T02:53:56.727Z,57.85
2023-04-19T02:56:23.934Z,57.51
2023-04-19T02:58:52.832Z,58.11
2023-04-19T03:01:21.845Z,58.63
2023-04-19T03:03:48.961Z,58.69
2023-04-19T03:06:18.436Z,57.47
2023-04-19T03:08:45.828Z,58.62
2023-04-19T03:11:17.910Z,58.79
2023-04-19T03:13:44.817Z,58.15
2023-04-19T03:16:14.210Z,58.97
2023-04-19T03:18:41.101Z,59.21
2023-04-19T03:21:09.534Z,58.89
2023-04-19T03:23:37.761Z,58.24
2023-04-19T03:26:04.846Z,58.28
2023-04-19T03:28:31.673Z,58.45
2023-04-19T03:30:58.516Z,58.65
2023-04-19T03:33:28.436Z,58.67
2023-04-19T03:35:57.585Z,58.79
2023-04-19T03:38:26.740Z,60.12
2023-04-19T03:40:53.563Z,59.71
2023-04-19T03:43:20.424Z,59.20
2023-04-19T03:45:47.319Z,59.13
2023-04-19T03:48:17.166Z,59.03
2023-04-19T03:50:44.034Z,58.45
2023-04-19T03:53:10.975Z,58.59
2023-04-19T03:55:37.786Z,59.09
2023-04-19T03:58:07.168Z,58.17
2023-04-19T04:00:34.166Z,57.55
2023-04-19T04:03:01.474Z,58.02
2023-04-19T04:05:31.499Z,59.10
2023-04-19T04:08:01.569Z,58.31
2023-04-19T04:10:28.501Z,59.24
2023-04-19T04:12:55.424Z,58.82
2023-04-19T04:15:25.029Z,58.64
2023-04-19T04:17:51.938Z,59.42
2023-04-19T04:20:19.311Z,58.44
2023-04-19T04:22:47.217Z,58.21
2023-04-19T04:25:18.695Z,59.31
2023-04-19T04:27:46.408Z,58.63
2023-04-19T04:30:13.577Z,59.25
2023-04-19T04:32:40.980Z,59.01
2023-04-19T04:35:12.285Z,58.73
2023-04-19T04:37:40.217Z,59.77
2023-04-19T04:40:08.943Z,59.22
2023-04-19T04:42:37.844Z,58.44
2023-04-19T04:45:07.462Z,59.30
2023-04-19T04:47:34.955Z,58.99
2023-04-19T04:50:05.055Z,58.87
2023-04-19T04:52:31.972Z,59.02
2023-04-19T04:54:58.839Z,60.00
2023-04-19T04:57:25.725Z,59.91
2023-04-19T04:59:52.710Z,59.31
2023-04-19T05:02:19.621Z,59.32
2023-04-19T05:04:46.607Z,59.74
2023-04-19T05:07:13.745Z,59.48
2023-04-19T05:09:40.603Z,59.27
2023-04-19T05:12:10.561Z,59.17
2023-04-19T05:14:37.453Z,58.84
2023-04-19T05:17:07.248Z,58.90
2023-04-19T05:19:34.225Z,58.56
2023-04-19T05:22:03.713Z,58.24
2023-04-19T05:24:33.565Z,58.11
2023-04-19T05:27:01.748Z,57.99
2023-04-19T05:29:28.665Z,57.03
2023-04-19T05:31:55.812Z,57.52
2023-04-19T05:34:25.968Z,57.31
2023-04-19T05:36:52.864Z,56.94
2023-04-19T05:39:19.705Z,57.59
2023-04-19T05:41:48.243Z,57.03
2023-04-19T05:44:15.452Z,56.58
2023-04-19T05:46:42.744Z,56.77
2023-04-19T05:49:09.571Z,57.39
2023-04-19T05:51:36.583Z,57.75
2023-04-19T05:54:03.766Z,57.94
2023-04-19T05:56:30.648Z,58.00
2023-04-19T05:58:58.282Z,57.24
2023-04-19T06:01:25.317Z,56.72
2023-04-19T06:03:54.400Z,56.78
2023-04-19T06:06:25.176Z,56.19
2023-04-19T06:08:54.622Z,57.14
2023-04-19T06:11:31.463Z,56.30
2023-04-19T06:14:08.712Z,55.74
2023-04-19T06:16:35.615Z,56.53
2023-04-19T06:19:05.379Z,55.69
2023-04-19T06:21:37.292Z,55.06
2023-04-19T06:24:05.772Z,54.48
2023-04-19T06:26:32.828Z,54.71
2023-04-19T06:29:02.297Z,54.67
2023-04-19T06:31:29.402Z,54.91
2023-04-19T06:33:56.493Z,54.55
2023-04-19T06:36:25.625Z,54.45
2023-04-19T06:38:55.537Z,53.72
2023-04-19T06:41:23.075Z,53.10
2023-04-19T06:43:52.492Z,52.01
2023-04-19T06:46:19.328Z,51.93
2023-04-19T06:48:48.309Z,52.40
2023-04-19T06:51:18.451Z,52.62
2023-04-19T06:53:45.308Z,51.50
2023-04-19T06:56:14.421Z,51.52
2023-04-19T06:58:41.300Z,50.30
2023-04-19T07:01:08.184Z,50.14
2023-04-19T07:03:35.350Z,50.21
2023-04-19T07:06:02.564Z,49.28
2023-04-19T07:08:48.292Z,49.27
2023-04-19T07:11:16.007Z,49.64
2023-04-19T07:13:47.417Z,49.44
2023-04-19T07:16:16.933Z,48.94
2023-04-19T07:18:44.075Z,47.93
2023-04-19T07:21:11.900Z,48.31
2023-04-19T07:23:41.004Z,47.46
2023-04-19T07:26:08.444Z,47.88
2023-04-19T07:28:35.983Z,46.59
2023-04-19T07:31:05.688Z,46.55
2023-04-19T07:33:32.733Z,45.37
2023-04-19T07:36:02.030Z,44.78
2023-04-19T07:38:29.047Z,44.21
2023-04-19T07:40:58.160Z,43.81
2023-04-19T07:43:25.113Z,43.12
2023-04-19T07:45:52.672Z,42.31
2023-04-19T07:48:21.913Z,41.64
2023-04-19T07:50:49.261Z,42.78
2023-04-19T07:53:19.044Z,40.44
2023-04-19T07:55:46.032Z,40.64
2023-04-19T07:58:12.919Z,40.00
2023-04-19T08:00:42.290Z,38.20
2023-04-19T08:03:14.179Z,38.74
2023-04-19T08:05:41.471Z,39.91
2023-04-19T08:08:08.394Z,38.76
2023-04-19T08:10:36.001Z,39.21
2023-04-19T08:13:06.280Z,38.64
2023-04-19T08:18:05.635Z,37.81
2023-04-19T08:20:33.206Z,38.13
2023-04-19T08:23:10.263Z,38.42
2023-04-19T08:25:41.750Z,37.43
2023-04-19T08:28:08.791Z,34.53
2023-04-19T08:30:38.121Z,35.32
2023-04-19T08:33:05.040Z,33.78
2023-04-19T08:35:31.986Z,34.08
2023-04-19T08:37:59.029Z,34.68
2023-04-19T08:40:25.921Z,32.85
2023-04-19T08:42:52.783Z,33.39
2023-04-19T08:45:28.380Z,33.42
2023-04-19T08:48:01.463Z,32.70
2023-04-19T08:50:36.113Z,33.13
2023-04-19T08:55:59.205Z,30.93
2023-04-19T09:01:05.802Z,30.55
2023-04-19T09:03:47.186Z,29.78
2023-04-19T09:06:26.684Z,29.84
2023-04-19T09:08:58.333Z,29.41
2023-04-19T09:11:40.347Z,29.24
2023-04-19T09:14:13.481Z,29.90
2023-04-19T09:16:46.111Z,29.54
2023-04-19T09:19:23.093Z,28.54
2023-04-19T09:21:55.711Z,27.21
2023-04-19T09:27:16.726Z,27.93
2023-04-19T09:29:56.561Z,26.75
2023-04-19T09:32:24.708Z,26.80
2023-04-19T09:35:02.717Z,27.08
2023-04-19T09:37:51.266Z,26.95
2023-04-19T09:40:28.884Z,28.48
2023-04-19T09:43:07.376Z,27.77
2023-04-19T09:45:45.786Z,27.01
2023-04-19T09:48:13.722Z,26.78
2023-04-19T09:51:06.222Z,26.53
2023-04-19T09:53:39.310Z,26.25
2023-04-19T09:56:07.568Z,24.79
2023-04-19T09:58:46.861Z,25.41
2023-04-19T10:01:19.393Z,25.36
2023-04-19T10:03:50.965Z,24.39
2023-04-19T10:08:54.746Z,23.46
2023-04-19T10:11:27.381Z,24.09
2023-04-19T10:14:00.198Z,23.38
2023-04-19T10:16:30.577Z,23.57
2023-04-19T10:19:01.790Z,23.11
2023-04-19T10:21:29.262Z,24.21
2023-04-19T10:23:59.844Z,23.75
2023-04-19T10:27:07.369Z,23.06
2023-04-19T10:29:56.220Z,22.79
2023-04-19T10:32:45.630Z,22.53
2023-04-19T10:35:29.505Z,22.13
2023-04-19T10:38:16.601Z,21.50
2023-04-19T10:40:56.542Z,22.36
2023-04-19T10:43:26.878Z,22.45
2023-04-19T10:46:00.358Z,22.09
2023-04-19T10:48:33.550Z,23.27
2023-04-19T10:51:16.949Z,23.39
2023-04-19T10:53:43.804Z,22.73
2023-04-19T10:56:10.745Z,22.34
2023-04-19T10:59:02.812Z,21.93
2023-04-19T11:01:45.478Z,22.39
2023-04-19T11:04:19.682Z,22.58
2023-04-19T11:06:52.690Z,22.48
2023-04-19T11:09:30.921Z,22.96
2023-04-19T11:12:01.453Z,23.02
2023-04-19T11:14:35.146Z,23.56
2023-04-19T11:17:16.182Z,22.68
2023-04-19T11:19:53.946Z,23.37
2023-04-19T11:22:31.111Z,24.14
2023-04-19T11:25:05.415Z,24.50
2023-04-19T11:27:34.048Z,23.57
2023-04-19T11:30:08.013Z,23.38
2023-04-19T11:32:38.829Z,23.59
2023-04-19T11:35:10.100Z,23.72
2023-04-19T11:37:39.181Z,23.78
2023-04-19T11:40:14.361Z,23.58
2023-04-19T11:42:44.113Z,23.50
2023-04-19T11:47:54.258Z,23.75
2023-04-19T11:50:38.423Z,23.54
2023-04-19T11:53:24.394Z,23.50
2023-04-19T11:55:52.988Z,23.93
2023-04-19T11:58:44.712Z,24.42
2023-04-19T12:01:16.520Z,24.47
2023-04-19T12:03:51.453Z,23.59
2023-04-19T12:06:33.330Z,24.11
2023-04-19T12:09:00.914Z,25.05
2023-04-19T12:11:50.380Z,24.17
2023-04-19T12:14:23.181Z,24.17
2023-04-19T12:17:16.194Z,24.66
2023-04-19T12:19:52.181Z,25.25
2023-04-19T12:22:24.285Z,24.42
2023-04-19T12:24:56.161Z,25.09
2023-04-19T12:27:25.788Z,23.92
2023-04-19T12:29:53.473Z,23.81
2023-04-19T12:32:21.062Z,24.05
2023-04-19T12:34:48.364Z,24.26
2023-04-19T12:37:15.522Z,24.49
2023-04-19T12:39:44.782Z,25.17
2023-04-19T12:42:12.130Z,24.81
2023-04-19T12:44:39.437Z,24.17
2023-04-19T12:47:08.849Z,24.86
2023-04-19T12:49:38.989Z,24.86
2023-04-19T12:52:07.298Z,24.78
2023-04-19T12:54:41.610Z,25.20
2023-04-19T12:57:09.004Z,25.32
2023-04-19T12:59:37.937Z,24.65
2023-04-19T13:02:08.034Z,24.85
2023-04-19T13:04:42.564Z,25.21
2023-04-19T13:07:12.294Z,25.79
2023-04-19T13:09:43.876Z,25.34
2023-04-19T13:12:11.070Z,25.43
2023-04-19T13:14:38.332Z,26.08
2023-04-19T13:17:05.625Z,26.43
2023-04-19T13:19:34.968Z,26.68
2023-04-19T13:22:01.985Z,26.45
2023-04-19T13:24:29.063Z,26.90
2023-04-19T13:27:00.809Z,26.81
2023-04-19T13:29:30.422Z,26.78
2023-04-19T13:31:59.950Z,27.68
2023-04-19T13:34:27.059Z,27.24
2023-04-19T13:36:54.238Z,27.42
2023-04-19T13:39:21.730Z,27.67
2023-04-19T13:41:51.310Z,27.38
2023-04-19T13:44:18.525Z,27.18
2023-04-19T13:46:45.843Z,27.59
2023-04-19T13:49:15.246Z,26.73
2023-04-19T13:51:50.049Z,26.90
2023-04-19T13:54:18.965Z,25.58
2023-04-19T13:56:46.398Z,26.74
2023-04-19T14:00:09.400Z,26.86
2023-04-19T14:02:42.665Z,27.31
2023-04-19T14:05:15.536Z,27.81
2023-04-19T14:07:46.336Z,26.93
2023-04-19T14:10:16.034Z,25.77
2023-04-19T14:12:43.064Z,25.75
2023-04-19T14:15:16.989Z,24.96
2023-04-19T14:17:44.445Z,25.68
2023-04-19T14:20:12.699Z,26.95
2023-04-19T14:22:40.321Z,27.83
2023-04-19T14:25:07.934Z,27.77
2023-04-19T14:27:38.546Z,27.00
2023-04-19T14:30:07.727Z,27.64
2023-04-19T14:32:35.145Z,27.50
2023-04-19T14:35:04.932Z,27.62
2023-04-19T14:37:34.618Z,27.03
2023-04-19T14:40:01.762Z,25.76
2023-04-19T14:42:33.885Z,26.25
2023-04-19T14:45:03.885Z,27.15
2023-04-19T14:47:31.282Z,27.07
2023-04-19T14:50:00.991Z,26.56
2023-04-19T14:52:30.285Z,26.42
2023-04-19T14:54:58.065Z,26.71
2023-04-19T14:57:25.902Z,26.76
2023-04-19T14:59:59.274Z,25.05
2023-04-19T15:02:26.953Z,25.37
2023-04-19T15:04:57.359Z,25.46
2023-04-19T15:07:24.828Z,24.96
2023-04-19T15:09:52.249Z,26.15
2023-04-19T15:12:19.416Z,27.70
2023-04-19T15:14:49.110Z,27.82
2023-04-19T15:17:18.671Z,28.34
2023-04-19T15:19:47.816Z,28.28
2023-04-19T15:22:17.452Z,28.13
2023-04-19T15:24:44.928Z,27.39
2023-04-19T15:27:14.672Z,27.67
2023-04-19T15:29:42.147Z,27.54
2023-04-19T15:32:12.524Z,26.91
2023-04-19T15:34:39.733Z,28.01
2023-04-19T15:37:08.236Z,27.51
2023-04-19T15:39:37.809Z,27.95
2023-04-19T15:42:06.141Z,28.65
2023-04-19T15:44:35.951Z,28.49
2023-04-19T15:47:06.065Z,28.30
2023-04-19T15:49:33.289Z,28.75
2023-04-19T15:52:00.725Z,27.94
2023-04-19T15:54:29.082Z,28.29
2023-04-19T15:56:57.635Z,27.69
2023-04-19T15:59:29.871Z,28.22
2023-04-19T16:01:59.729Z,28.14
2023-04-19T16:04:27.241Z,27.98
2023-04-19T16:06:55.644Z,28.00
2023-04-19T16:09:23.115Z,28.76
2023-04-19T16:11:51.914Z,28.22
2023-04-19T16:14:19.222Z,28.34
2023-04-19T16:16:46.836Z,28.57
2023-04-19T16:19:16.708Z,28.27
2023-04-19T16:21:43.788Z,28.05
2023-04-19T16:25:40.331Z,29.00
2023-04-19T16:28:10.272Z,27.83
2023-04-19T16:30:40.182Z,26.52
2023-04-19T16:33:07.661Z,26.12
2023-04-19T16:35:37.531Z,25.65
2023-04-19T16:38:05.145Z,24.57
2023-04-19T16:40:37.212Z,24.62
2023-04-19T16:43:06.419Z,25.30
2023-04-19T16:45:33.949Z,25.45
2023-04-19T16:48:03.725Z,25.65
2023-04-19T16:50:33.340Z,25.72
2023-04-19T16:53:07.742Z,25.54
2023-04-19T16:55:44.589Z,25.73
2023-04-19T16:58:15.875Z,25.70
2023-04-19T17:00:46.757Z,26.72
2023-04-19T17:03:15.254Z,26.04
2023-04-19T17:05:45.103Z,26.83
2023-04-19T17:08:14.321Z,26.08
2023-04-19T17:10:43.117Z,26.18
2023-04-19T17:13:10.605Z,26.75
2023-04-19T17:15:40.800Z,26.94
2023-04-19T17:18:12.018Z,26.90
2023-04-19T17:20:43.689Z,27.22
2023-04-19T17:23:25.819Z,27.27
2023-04-19T17:26:06.380Z,27.57
2023-04-19T17:28:35.990Z,27.76
2023-04-19T17:31:04.332Z,28.03
2023-04-19T17:33:33.052Z,28.91
2023-04-19T17:36:04.065Z,28.80
2023-04-19T17:38:32.143Z,29.86
2023-04-19T17:41:03.633Z,30.13
2023-04-19T17:43:30.541Z,30.56
2023-04-19T17:45:59.763Z,31.17
2023-04-19T17:48:29.579Z,31.48
2023-04-19T17:50:56.492Z,31.17
2023-04-19T17:53:23.369Z,32.54
2023-04-19T17:55:51.708Z,32.34
2023-04-19T17:58:18.575Z,33.16
2023-04-19T18:00:48.022Z,33.64
2023-04-19T18:03:18.936Z,33.91
2023-04-19T18:05:46.077Z,33.44
2023-04-19T18:08:13.494Z,33.46
2023-04-19T18:10:40.409Z,33.96
2023-04-19T18:13:10.284Z,34.35
2023-04-19T18:15:39.609Z,34.76
2023-04-19T18:18:08.623Z,34.57
2023-04-19T18:20:37.934Z,34.65
2023-04-19T18:23:04.972Z,33.71
2023-04-19T18:25:35.100Z,33.68
2023-04-19T18:28:02.238Z,34.33
2023-04-19T18:30:29.140Z,34.60
2023-04-19T18:32:55.981Z,34.01
2023-04-19T18:35:25.972Z,33.82
2023-04-19T18:37:52.832Z,34.55
2023-04-19T18:40:19.942Z,35.10
2023-04-19T18:42:49.181Z,35.29
2023-04-19T18:45:16.322Z,35.04
2023-04-19T18:47:43.291Z,35.28
2023-04-19T18:50:13.347Z,35.61
2023-04-19T18:52:45.966Z,34.72
2023-04-19T18:55:16.004Z,35.85
2023-04-19T18:57:42.936Z,34.63
2023-04-19T19:00:11.330Z,35.49
2023-04-19T19:02:41.524Z,34.17
2023-04-19T19:05:13.762Z,35.31
2023-04-19T19:07:41.642Z,35.01
2023-04-19T19:10:19.241Z,34.93
2023-04-19T19:12:53.889Z,34.57
2023-04-19T19:15:20.775Z,34.88
2023-04-19T19:17:50.337Z,35.36
2023-04-19T19:20:19.518Z,34.52
2023-04-19T19:22:46.457Z,34.76
2023-04-19T19:25:13.607Z,34.25
2023-04-19T19:27:58.389Z,34.96
2023-04-19T19:30:33.531Z,35.13
2023-04-19T19:33:02.360Z,34.70
2023-04-19T19:35:31.429Z,34.86
2023-04-19T19:37:58.415Z,35.89
2023-04-19T19:40:25.275Z,36.17
2023-04-19T19:42:52.116Z,36.87
2023-04-19T19:45:22.090Z,36.81
2023-04-19T19:47:51.656Z,37.59
2023-04-19T19:52:51.272Z,37.32
2023-04-19T19:55:18.397Z,37.33
2023-04-19T20:00:42.025Z,38.34
2023-04-19T20:03:06.250Z,38.05
2023-04-19T20:05:34.099Z,38.83
2023-04-19T20:08:15.604Z,38.95
2023-04-19T20:10:45.137Z,38.41
2023-04-19T20:13:13.234Z,38.84
2023-04-19T20:15:45.320Z,39.38
2023-04-19T20:18:12.325Z,39.71
2023-04-19T20:20:41.533Z,43.00
2023-04-19T20:23:08.863Z,43.53
2023-04-19T20:25:35.948Z,46.05
2023-04-19T20:28:03.441Z,47.89
2023-04-19T20:30:31.119Z,49.36
2023-04-19T20:33:01.178Z,49.71
2023-04-19T20:35:28.461Z,49.92
2023-04-19T20:38:02.124Z,50.39
2023-04-19T20:40:31.639Z,50.72
2023-04-19T20:42:58.717Z,51.99
2023-04-19T20:45:25.839Z,51.66
2023-04-19T20:47:54.197Z,52.06
2023-04-19T20:50:24.364Z,52.58
2023-04-19T20:52:53.458Z,52.00
2023-04-19T20:55:22.951Z,52.91
2023-04-19T20:57:49.834Z,53.68
2023-04-19T21:00:17.144Z,53.31
2023-04-19T21:02:47.157Z,53.25
2023-04-19T21:05:14.192Z,53.11
2023-04-19T21:07:41.010Z,53.34
2023-04-19T21:10:08.491Z,53.29
2023-04-19T21:12:38.352Z,52.45
2023-04-19T21:15:06.347Z,52.41
2023-04-19T21:17:35.475Z,52.56
2023-04-19T21:20:02.641Z,52.35
2023-04-19T21:22:31.908Z,52.78
2023-04-19T21:25:01.260Z,52.75
2023-04-19T21:27:30.108Z,52.67
2023-04-19T21:29:56.930Z,53.12
2023-04-19T21:32:23.882Z,52.48
2023-04-19T21:34:50.814Z,52.11
2023-04-19T21:37:20.827Z,51.94
2023-04-19T21:39:49.181Z,51.99
2023-04-19T21:42:16.055Z,51.05
2023-04-19T21:44:42.890Z,51.06
2023-04-19T21:47:10.956Z,51.19
2023-04-19T21:49:44.762Z,50.87
2023-04-19T21:52:11.699Z,50.86
2023-04-19T21:54:38.565Z,50.55
2023-04-19T21:57:05.586Z,50.54
2023-04-19T21:59:38.590Z,49.46
2023-04-19T22:02:05.651Z,49.84
2023-04-19T22:04:32.693Z,49.53
2023-04-19T22:07:02.728Z,48.68
2023-04-19T22:09:30.551Z,49.09
2023-04-19T22:12:00.895Z,48.41
2023-04-19T22:14:28.562Z,48.20
2023-04-19T22:16:56.658Z,48.25
2023-04-19T22:19:26.242Z,48.20
2023-04-19T22:21:53.601Z,47.34
2023-04-19T22:24:22.128Z,47.30
2023-04-19T22:26:50.150Z,48.51
2023-04-19T22:29:18.133Z,50.18
2023-04-19T22:31:45.468Z,49.32
2023-04-19T22:34:14.678Z,51.31
2023-04-19T22:36:41.645Z,52.89
2023-04-19T22:39:09.072Z,53.16
2023-04-19T22:41:36.238Z,54.45
2023-04-19T22:44:06.141Z,55.99
2023-04-19T22:46:36.639Z,55.42
2023-04-19T22:49:06.326Z,55.79
2023-04-19T22:51:36.753Z,56.51
2023-04-19T22:54:04.460Z,56.29
2023-04-19T22:56:31.327Z,56.23
2023-04-19T22:58:58.326Z,57.81
2023-04-19T23:01:27.426Z,57.90
2023-04-19T23:03:55.035Z,58.20
2023-04-19T23:06:22.765Z,58.23
2023-04-19T23:08:50.540Z,58.14
2023-04-19T23:11:17.690Z,58.05
2023-04-19T23:13:47.454Z,58.22
2023-04-19T23:16:17.030Z,58.59
2023-04-19T23:18:47.063Z,58.82
2023-04-19T23:21:14.490Z,58.92
2023-04-19T23:23:41.398Z,58.12
2023-04-19T23:26:10.514Z,58.82
2023-04-19T23:28:37.685Z,60.90
2023-04-19T23:31:05.314Z,64.50
2023-04-19T23:33:32.277Z,67.11
2023-04-19T23:36:01.346Z,67.87
2023-04-19T23:38:30.668Z,68.44
2023-04-19T23:41:00.450Z,68.67
2023-04-19T23:43:31.869Z,67.91
2023-04-19T23:45:58.754Z,67.40
2023-04-19T23:48:25.957Z,67.20
2023-04-19T23:50:55.414Z,67.37
2023-04-19T23:53:22.519Z,66.66
2023-04-19T23:55:51.792Z,68.86
2023-04-19T23:58:20.152Z,68.04
